sensor_id;sensor_type;location;lat;lon;timestamp;P1;durP1;ratioP1;P2;durP2;ratioP2
65636;SDS011;52327;42.622;23.316;2023-03-07T00:01:42;4.35;;;2.13;;
65636;SDS011;52327;42.622;23.316;2023-03-07T00:04:08;4.68;;;2.05;;
65636;SDS011;52327;42.622;23.316;2023-03-07T00:06:33;13.25;;;8.45;;
65636;SDS011;52327;42.622;23.316;2023-03-07T00:08:59;5.90;;;2.92;;
65636;SDS011;52327;42.622;23.316;2023-03-07T00:11:26;7.22;;;2.22;;
65636;SDS011;52327;42.622;23.316;2023-03-07T00:13:52;3.13;;;2.17;;
65636;SDS011;52327;42.622;23.316;2023-03-07T00:16:21;4.25;;;1.65;;
65636;SDS011;52327;42.622;23.316;2023-03-07T00:18:47;2.63;;;1.77;;
65636;SDS011;52327;42.622;23.316;2023-03-07T00:21:16;3.88;;;2.08;;
65636;SDS011;52327;42.622;23.316;2023-03-07T00:23:44;5.75;;;1.80;;
65636;SDS011;52327;42.622;23.316;2023-03-07T00:26:14;1.70;;;1.48;;
65636;SDS011;52327;42.622;23.316;2023-03-07T00:28:41;4.30;;;2.40;;
65636;SDS011;52327;42.622;23.316;2023-03-07T00:31:07;5.43;;;2.33;;
65636;SDS011;52327;42.622;23.316;2023-03-07T00:33:35;6.22;;;2.17;;
65636;SDS011;52327;42.622;23.316;2023-03-07T00:36:05;1.25;;;1.00;;
65636;SDS011;52327;42.622;23.316;2023-03-07T00:38:32;3.47;;;1.67;;
65636;SDS011;52327;42.622;23.316;2023-03-07T00:41:02;3.17;;;1.48;;
65636;SDS011;52327;42.622;23.316;2023-03-07T00:43:30;1.67;;;1.02;;
65636;SDS011;52327;42.622;23.316;2023-03-07T00:45:55;1.65;;;1.15;;
65636;SDS011;52327;42.622;23.316;2023-03-07T00:48:21;2.08;;;1.17;;
65636;SDS011;52327;42.622;23.316;2023-03-07T00:50:47;1.50;;;0.93;;
65636;SDS011;52327;42.622;23.316;2023-03-07T00:53:13;1.85;;;1.55;;
65636;SDS011;52327;42.622;23.316;2023-03-07T00:55:39;1.85;;;0.98;;
65636;SDS011;52327;42.622;23.316;2023-03-07T00:58:04;2.35;;;1.45;;
65636;SDS011;52327;42.622;23.316;2023-03-07T01:00:30;2.20;;;0.85;;
65636;SDS011;52327;42.622;23.316;2023-03-07T01:02:55;1.58;;;1.02;;
65636;SDS011;52327;42.622;23.316;2023-03-07T01:05:22;1.95;;;1.15;;
65636;SDS011;52327;42.622;23.316;2023-03-07T01:07:47;2.00;;;0.90;;
65636;SDS011;52327;42.622;23.316;2023-03-07T01:10:13;2.92;;;1.90;;
65636;SDS011;52327;42.622;23.316;2023-03-07T01:12:39;3.45;;;1.83;;
65636;SDS011;52327;42.622;23.316;2023-03-07T01:15:05;3.75;;;2.33;;
65636;SDS011;52327;42.622;23.316;2023-03-07T01:17:31;6.13;;;2.22;;
65636;SDS011;52327;42.622;23.316;2023-03-07T01:19:57;5.15;;;2.65;;
65636;SDS011;52327;42.622;23.316;2023-03-07T01:22:23;3.80;;;2.22;;
65636;SDS011;52327;42.622;23.316;2023-03-07T01:24:48;3.25;;;2.30;;
65636;SDS011;52327;42.622;23.316;2023-03-07T01:27:13;3.33;;;1.98;;
65636;SDS011;52327;42.622;23.316;2023-03-07T01:29:39;2.92;;;1.75;;
65636;SDS011;52327;42.622;23.316;2023-03-07T01:32:04;1.75;;;1.65;;
65636;SDS011;52327;42.622;23.316;2023-03-07T01:34:30;3.90;;;2.47;;
65636;SDS011;52327;42.622;23.316;2023-03-07T01:36:55;4.25;;;2.50;;
65636;SDS011;52327;42.622;23.316;2023-03-07T01:39:20;5.03;;;2.53;;
65636;SDS011;52327;42.622;23.316;2023-03-07T01:41:47;4.55;;;2.58;;
65636;SDS011;52327;42.622;23.316;2023-03-07T01:44:16;2.10;;;1.65;;
65636;SDS011;52327;42.622;23.316;2023-03-07T01:52:09;2.15;;;1.38;;
65636;SDS011;52327;42.622;23.316;2023-03-07T01:54:40;4.32;;;2.55;;
65636;SDS011;52327;42.622;23.316;2023-03-07T01:57:12;2.53;;;1.65;;
65636;SDS011;52327;42.622;23.316;2023-03-07T01:59:41;6.15;;;2.08;;
65636;SDS011;52327;42.622;23.316;2023-03-07T02:02:10;3.45;;;1.80;;
65636;SDS011;52327;42.622;23.316;2023-03-07T02:07:26;4.35;;;2.55;;
65636;SDS011;52327;42.622;23.316;2023-03-07T02:12:21;2.03;;;1.48;;
65636;SDS011;52327;42.622;23.316;2023-03-07T02:14:46;6.90;;;1.48;;
65636;SDS011;52327;42.622;23.316;2023-03-07T02:17:13;4.40;;;2.55;;
65636;SDS011;52327;42.622;23.316;2023-03-07T02:20:22;3.67;;;2.25;;
65636;SDS011;52327;42.622;23.316;2023-03-07T02:22:33;14.77;;;3.00;;
65636;SDS011;52327;42.622;23.316;2023-03-07T02:25:13;4.60;;;2.47;;
65636;SDS011;52327;42.622;23.316;2023-03-07T02:27:44;3.50;;;2.38;;
65636;SDS011;52327;42.622;23.316;2023-03-07T02:30:11;3.65;;;2.55;;
65636;SDS011;52327;42.622;23.316;2023-03-07T02:32:36;9.13;;;2.40;;
65636;SDS011;52327;42.622;23.316;2023-03-07T02:35:08;6.90;;;2.42;;
65636;SDS011;52327;42.622;23.316;2023-03-07T02:37:38;1.80;;;1.45;;
65636;SDS011;52327;42.622;23.316;2023-03-07T02:40:05;3.35;;;2.17;;
65636;SDS011;52327;42.622;23.316;2023-03-07T02:42:36;4.18;;;2.17;;
65636;SDS011;52327;42.622;23.316;2023-03-07T02:45:06;5.20;;;2.08;;
65636;SDS011;52327;42.622;23.316;2023-03-07T02:47:36;7.90;;;2.25;;
65636;SDS011;52327;42.622;23.316;2023-03-07T02:50:03;3.75;;;1.27;;
65636;SDS011;52327;42.622;23.316;2023-03-07T02:52:29;5.03;;;2.22;;
65636;SDS011;52327;42.622;23.316;2023-03-07T02:54:54;1.52;;;1.40;;
65636;SDS011;52327;42.622;23.316;2023-03-07T02:57:20;3.58;;;1.98;;
65636;SDS011;52327;42.622;23.316;2023-03-07T02:59:46;3.08;;;2.13;;
65636;SDS011;52327;42.622;23.316;2023-03-07T03:02:12;1.75;;;1.10;;
65636;SDS011;52327;42.622;23.316;2023-03-07T03:04:38;5.15;;;2.25;;
65636;SDS011;52327;42.622;23.316;2023-03-07T03:07:03;4.25;;;2.15;;
65636;SDS011;52327;42.622;23.316;2023-03-07T03:09:29;5.10;;;1.55;;
65636;SDS011;52327;42.622;23.316;2023-03-07T03:11:55;4.80;;;1.70;;
65636;SDS011;52327;42.622;23.316;2023-03-07T03:14:20;2.55;;;1.73;;
65636;SDS011;52327;42.622;23.316;2023-03-07T03:16:46;3.70;;;2.20;;
65636;SDS011;52327;42.622;23.316;2023-03-07T03:19:11;2.28;;;1.30;;
65636;SDS011;52327;42.622;23.316;2023-03-07T03:21:37;2.97;;;1.95;;
65636;SDS011;52327;42.622;23.316;2023-03-07T03:24:05;1.25;;;0.80;;
65636;SDS011;52327;42.622;23.316;2023-03-07T03:26:32;2.90;;;1.98;;
65636;SDS011;52327;42.622;23.316;2023-03-07T03:28:58;1.55;;;1.45;;
65636;SDS011;52327;42.622;23.316;2023-03-07T03:31:24;2.70;;;2.03;;
65636;SDS011;52327;42.622;23.316;2023-03-07T03:33:50;3.67;;;2.17;;
65636;SDS011;52327;42.622;23.316;2023-03-07T03:36:16;1.65;;;1.48;;
65636;SDS011;52327;42.622;23.316;2023-03-07T03:38:43;1.48;;;1.30;;
65636;SDS011;52327;42.622;23.316;2023-03-07T03:41:12;2.63;;;1.42;;
65636;SDS011;52327;42.622;23.316;2023-03-07T03:43:40;5.28;;;2.63;;
65636;SDS011;52327;42.622;23.316;2023-03-07T03:46:05;6.25;;;1.88;;
65636;SDS011;52327;42.622;23.316;2023-03-07T03:48:31;2.38;;;1.70;;
65636;SDS011;52327;42.622;23.316;2023-03-07T03:53:51;2.40;;;0.88;;
65636;SDS011;52327;42.622;23.316;2023-03-07T03:56:19;1.30;;;1.10;;
65636;SDS011;52327;42.622;23.316;2023-03-07T03:58:49;2.33;;;1.45;;
65636;SDS011;52327;42.622;23.316;2023-03-07T04:01:17;2.80;;;1.88;;
65636;SDS011;52327;42.622;23.316;2023-03-07T04:03:45;2.20;;;1.75;;
65636;SDS011;52327;42.622;23.316;2023-03-07T04:06:13;2.38;;;0.82;;
65636;SDS011;52327;42.622;23.316;2023-03-07T04:08:41;3.57;;;2.20;;
65636;SDS011;52327;42.622;23.316;2023-03-07T04:11:07;3.70;;;1.80;;
65636;SDS011;52327;42.622;23.316;2023-03-07T04:13:33;3.83;;;2.13;;
65636;SDS011;52327;42.622;23.316;2023-03-07T04:15:59;1.73;;;1.17;;
65636;SDS011;52327;42.622;23.316;2023-03-07T04:18:27;1.73;;;1.60;;
65636;SDS011;52327;42.622;23.316;2023-03-07T04:20:53;4.80;;;2.30;;
65636;SDS011;52327;42.622;23.316;2023-03-07T04:23:19;5.32;;;1.95;;
65636;SDS011;52327;42.622;23.316;2023-03-07T04:25:50;4.80;;;2.28;;
65636;SDS011;52327;42.622;23.316;2023-03-07T04:28:19;2.28;;;2.08;;
65636;SDS011;52327;42.622;23.316;2023-03-07T04:30:45;3.72;;;2.38;;
65636;SDS011;52327;42.622;23.316;2023-03-07T04:33:13;2.70;;;2.00;;
65636;SDS011;52327;42.622;23.316;2023-03-07T04:35:39;2.85;;;1.52;;
65636;SDS011;52327;42.622;23.316;2023-03-07T04:38:05;5.80;;;2.15;;
65636;SDS011;52327;42.622;23.316;2023-03-07T04:40:31;3.88;;;2.33;;
65636;SDS011;52327;42.622;23.316;2023-03-07T04:42:57;3.75;;;2.10;;
65636;SDS011;52327;42.622;23.316;2023-03-07T04:45:22;3.30;;;2.15;;
65636;SDS011;52327;42.622;23.316;2023-03-07T04:47:48;3.13;;;1.80;;
65636;SDS011;52327;42.622;23.316;2023-03-07T04:50:14;7.22;;;2.75;;
65636;SDS011;52327;42.622;23.316;2023-03-07T04:52:41;4.97;;;3.30;;
65636;SDS011;52327;42.622;23.316;2023-03-07T04:55:07;4.78;;;2.83;;
65636;SDS011;52327;42.622;23.316;2023-03-07T04:57:32;8.27;;;3.65;;
65636;SDS011;52327;42.622;23.316;2023-03-07T04:59:58;8.52;;;3.63;;
65636;SDS011;52327;42.622;23.316;2023-03-07T05:02:25;8.07;;;2.20;;
65636;SDS011;52327;42.622;23.316;2023-03-07T05:04:51;4.38;;;2.78;;
65636;SDS011;52327;42.622;23.316;2023-03-07T05:07:16;4.82;;;3.22;;
65636;SDS011;52327;42.622;23.316;2023-03-07T05:09:41;3.55;;;2.45;;
65636;SDS011;52327;42.622;23.316;2023-03-07T05:12:07;6.03;;;2.45;;
65636;SDS011;52327;42.622;23.316;2023-03-07T05:14:32;2.35;;;1.85;;
65636;SDS011;52327;42.622;23.316;2023-03-07T05:16:58;5.05;;;2.22;;
65636;SDS011;52327;42.622;23.316;2023-03-07T05:19:23;5.20;;;3.10;;
65636;SDS011;52327;42.622;23.316;2023-03-07T05:21:49;3.67;;;2.75;;
65636;SDS011;52327;42.622;23.316;2023-03-07T05:24:14;7.38;;;2.65;;
65636;SDS011;52327;42.622;23.316;2023-03-07T05:26:40;13.93;;;1.65;;
65636;SDS011;52327;42.622;23.316;2023-03-07T05:29:05;2.83;;;2.22;;
65636;SDS011;52327;42.622;23.316;2023-03-07T05:31:31;7.35;;;3.10;;
65636;SDS011;52327;42.622;23.316;2023-03-07T05:33:57;4.65;;;2.70;;
65636;SDS011;52327;42.622;23.316;2023-03-07T05:36:23;2.53;;;2.30;;
65636;SDS011;52327;42.622;23.316;2023-03-07T05:38:48;5.25;;;2.60;;
65636;SDS011;52327;42.622;23.316;2023-03-07T05:41:14;4.90;;;1.65;;
65636;SDS011;52327;42.622;23.316;2023-03-07T05:43:39;6.22;;;2.30;;
65636;SDS011;52327;42.622;23.316;2023-03-07T05:46:05;3.03;;;2.47;;
65636;SDS011;52327;42.622;23.316;2023-03-07T05:48:30;4.30;;;3.45;;
65636;SDS011;52327;42.622;23.316;2023-03-07T05:50:58;4.80;;;2.75;;
65636;SDS011;52327;42.622;23.316;2023-03-07T05:53:25;6.25;;;2.92;;
65636;SDS011;52327;42.622;23.316;2023-03-07T05:55:50;3.58;;;2.63;;
65636;SDS011;52327;42.622;23.316;2023-03-07T05:58:16;2.45;;;2.10;;
65636;SDS011;52327;42.622;23.316;2023-03-07T06:00:41;3.70;;;2.35;;
65636;SDS011;52327;42.622;23.316;2023-03-07T06:03:06;5.72;;;2.95;;
65636;SDS011;52327;42.622;23.316;2023-03-07T06:05:32;8.25;;;3.35;;
65636;SDS011;52327;42.622;23.316;2023-03-07T06:07:57;4.57;;;2.28;;
65636;SDS011;52327;42.622;23.316;2023-03-07T06:10:23;12.57;;;3.95;;
65636;SDS011;52327;42.622;23.316;2023-03-07T06:12:52;6.90;;;3.65;;
65636;SDS011;52327;42.622;23.316;2023-03-07T06:15:18;4.47;;;2.42;;
65636;SDS011;52327;42.622;23.316;2023-03-07T06:17:44;6.18;;;4.35;;
65636;SDS011;52327;42.622;23.316;2023-03-07T06:20:10;2.47;;;1.67;;
65636;SDS011;52327;42.622;23.316;2023-03-07T06:22:36;4.70;;;2.83;;
65636;SDS011;52327;42.622;23.316;2023-03-07T06:25:03;4.05;;;2.97;;
65636;SDS011;52327;42.622;23.316;2023-03-07T06:27:36;7.28;;;2.30;;
65636;SDS011;52327;42.622;23.316;2023-03-07T06:30:02;5.03;;;3.08;;
65636;SDS011;52327;42.622;23.316;2023-03-07T06:32:29;4.45;;;3.33;;
65636;SDS011;52327;42.622;23.316;2023-03-07T06:34:56;8.95;;;2.72;;
65636;SDS011;52327;42.622;23.316;2023-03-07T06:37:21;9.35;;;2.35;;
65636;SDS011;52327;42.622;23.316;2023-03-07T06:39:47;6.13;;;3.85;;
65636;SDS011;52327;42.622;23.316;2023-03-07T06:42:12;5.28;;;3.80;;
65636;SDS011;52327;42.622;23.316;2023-03-07T06:44:37;6.35;;;3.90;;
65636;SDS011;52327;42.622;23.316;2023-03-07T06:47:03;5.40;;;3.53;;
65636;SDS011;52327;42.622;23.316;2023-03-07T06:49:28;8.52;;;2.97;;
65636;SDS011;52327;42.622;23.316;2023-03-07T06:51:54;4.55;;;2.42;;
65636;SDS011;52327;42.622;23.316;2023-03-07T06:54:19;7.05;;;4.38;;
65636;SDS011;52327;42.622;23.316;2023-03-07T06:56:45;3.45;;;2.33;;
65636;SDS011;52327;42.622;23.316;2023-03-07T06:59:10;9.50;;;3.40;;
65636;SDS011;52327;42.622;23.316;2023-03-07T07:01:37;3.90;;;2.28;;
65636;SDS011;52327;42.622;23.316;2023-03-07T07:04:02;3.42;;;3.03;;
65636;SDS011;52327;42.622;23.316;2023-03-07T07:06:28;5.80;;;3.17;;
65636;SDS011;52327;42.622;23.316;2023-03-07T07:08:54;4.45;;;2.22;;
65636;SDS011;52327;42.622;23.316;2023-03-07T07:11:21;5.68;;;2.53;;
65636;SDS011;52327;42.622;23.316;2023-03-07T07:13:47;5.03;;;3.25;;
65636;SDS011;52327;42.622;23.316;2023-03-07T07:16:17;4.15;;;2.63;;
65636;SDS011;52327;42.622;23.316;2023-03-07T07:18:43;4.68;;;2.63;;
65636;SDS011;52327;42.622;23.316;2023-03-07T07:21:09;4.63;;;2.53;;
65636;SDS011;52327;42.622;23.316;2023-03-07T07:23:35;3.53;;;1.67;;
65636;SDS011;52327;42.622;23.316;2023-03-07T07:26:00;12.07;;;2.58;;
65636;SDS011;52327;42.622;23.316;2023-03-07T07:28:26;2.42;;;1.88;;
65636;SDS011;52327;42.622;23.316;2023-03-07T07:30:52;3.20;;;2.17;;
65636;SDS011;52327;42.622;23.316;2023-03-07T07:33:17;8.27;;;3.28;;
65636;SDS011;52327;42.622;23.316;2023-03-07T07:35:43;5.57;;;3.65;;
65636;SDS011;52327;42.622;23.316;2023-03-07T07:38:09;9.18;;;5.05;;
65636;SDS011;52327;42.622;23.316;2023-03-07T07:40:34;9.35;;;5.38;;
65636;SDS011;52327;42.622;23.316;2023-03-07T07:43:00;5.72;;;3.13;;
65636;SDS011;52327;42.622;23.316;2023-03-07T07:45:25;3.92;;;2.13;;
65636;SDS011;52327;42.622;23.316;2023-03-07T07:47:51;6.38;;;2.95;;
65636;SDS011;52327;42.622;23.316;2023-03-07T07:50:17;3.90;;;2.85;;
65636;SDS011;52327;42.622;23.316;2023-03-07T07:52:44;11.45;;;7.70;;
65636;SDS011;52327;42.622;23.316;2023-03-07T07:55:09;9.30;;;5.68;;
65636;SDS011;52327;42.622;23.316;2023-03-07T07:57:37;10.63;;;4.95;;
65636;SDS011;52327;42.622;23.316;2023-03-07T08:00:03;10.45;;;3.63;;
65636;SDS011;52327;42.622;23.316;2023-03-07T08:02:29;2.92;;;2.28;;
65636;SDS011;52327;42.622;23.316;2023-03-07T08:04:55;7.35;;;3.45;;
65636;SDS011;52327;42.622;23.316;2023-03-07T08:07:21;7.85;;;3.85;;
65636;SDS011;52327;42.622;23.316;2023-03-07T08:09:46;5.45;;;1.92;;
65636;SDS011;52327;42.622;23.316;2023-03-07T08:12:12;4.60;;;2.15;;
65636;SDS011;52327;42.622;23.316;2023-03-07T08:14:38;5.40;;;2.90;;
65636;SDS011;52327;42.622;23.316;2023-03-07T08:17:04;3.63;;;2.33;;
65636;SDS011;52327;42.622;23.316;2023-03-07T08:19:29;7.35;;;3.20;;
65636;SDS011;52327;42.622;23.316;2023-03-07T08:21:54;4.65;;;2.70;;
65636;SDS011;52327;42.622;23.316;2023-03-07T08:24:21;7.90;;;2.25;;
65636;SDS011;52327;42.622;23.316;2023-03-07T08:26:46;6.57;;;3.03;;
65636;SDS011;52327;42.622;23.316;2023-03-07T08:29:12;8.20;;;4.43;;
65636;SDS011;52327;42.622;23.316;2023-03-07T08:31:38;11.02;;;5.63;;
65636;SDS011;52327;42.622;23.316;2023-03-07T08:34:03;8.15;;;3.72;;
65636;SDS011;52327;42.622;23.316;2023-03-07T08:36:29;2.13;;;1.38;;
65636;SDS011;52327;42.622;23.316;2023-03-07T08:38:54;6.00;;;2.85;;
65636;SDS011;52327;42.622;23.316;2023-03-07T08:41:20;10.68;;;3.00;;
65636;SDS011;52327;42.622;23.316;2023-03-07T08:43:46;7.28;;;2.85;;
65636;SDS011;52327;42.622;23.316;2023-03-07T08:46:11;5.38;;;2.75;;
65636;SDS011;52327;42.622;23.316;2023-03-07T08:48:37;5.90;;;2.55;;
65636;SDS011;52327;42.622;23.316;2023-03-07T08:51:03;4.47;;;2.78;;
65636;SDS011;52327;42.622;23.316;2023-03-07T08:53:35;3.50;;;1.98;;
65636;SDS011;52327;42.622;23.316;2023-03-07T08:56:04;4.85;;;1.85;;
65636;SDS011;52327;42.622;23.316;2023-03-07T08:58:33;3.45;;;2.30;;
65636;SDS011;52327;42.622;23.316;2023-03-07T09:00:59;4.63;;;2.33;;
65636;SDS011;52327;42.622;23.316;2023-03-07T09:03:25;2.90;;;1.58;;
65636;SDS011;52327;42.622;23.316;2023-03-07T09:05:50;5.65;;;1.77;;
65636;SDS011;52327;42.622;23.316;2023-03-07T09:08:16;2.10;;;1.42;;
65636;SDS011;52327;42.622;23.316;2023-03-07T09:10:41;2.15;;;1.50;;
65636;SDS011;52327;42.622;23.316;2023-03-07T09:13:07;3.88;;;1.10;;
65636;SDS011;52327;42.622;23.316;2023-03-07T09:15:32;4.25;;;1.95;;
65636;SDS011;52327;42.622;23.316;2023-03-07T09:17:58;4.80;;;2.38;;
65636;SDS011;52327;42.622;23.316;2023-03-07T09:20:23;4.88;;;2.40;;
65636;SDS011;52327;42.622;23.316;2023-03-07T09:22:48;4.40;;;2.53;;
65636;SDS011;52327;42.622;23.316;2023-03-07T09:25:15;2.05;;;1.70;;
65636;SDS011;52327;42.622;23.316;2023-03-07T09:27:42;7.40;;;2.25;;
65636;SDS011;52327;42.622;23.316;2023-03-07T09:30:09;5.35;;;2.15;;
65636;SDS011;52327;42.622;23.316;2023-03-07T09:32:36;3.05;;;2.10;;
65636;SDS011;52327;42.622;23.316;2023-03-07T09:35:01;4.22;;;1.55;;
65636;SDS011;52327;42.622;23.316;2023-03-07T09:37:27;3.58;;;1.60;;
65636;SDS011;52327;42.622;23.316;2023-03-07T09:39:52;6.85;;;3.75;;
65636;SDS011;52327;42.622;23.316;2023-03-07T09:42:32;4.70;;;2.42;;
65636;SDS011;52327;42.622;23.316;2023-03-07T09:50:53;3.20;;;1.38;;
65636;SDS011;52327;42.622;23.316;2023-03-07T09:53:23;3.63;;;1.75;;
65636;SDS011;52327;42.622;23.316;2023-03-07T09:55:57;2.60;;;1.30;;
65636;SDS011;52327;42.622;23.316;2023-03-07T09:58:25;7.05;;;2.03;;
65636;SDS011;52327;42.622;23.316;2023-03-07T10:00:55;2.15;;;1.35;;
65636;SDS011;52327;42.622;23.316;2023-03-07T10:03:40;3.88;;;1.88;;
65636;SDS011;52327;42.622;23.316;2023-03-07T10:06:15;1.50;;;1.23;;
65636;SDS011;52327;42.622;23.316;2023-03-07T10:08:49;4.82;;;1.73;;
65636;SDS011;52327;42.622;23.316;2023-03-07T10:14:18;1.65;;;1.27;;
65636;SDS011;52327;42.622;23.316;2023-03-07T10:27:02;1.17;;;1.08;;
65636;SDS011;52327;42.622;23.316;2023-03-07T10:29:38;2.15;;;1.60;;
65636;SDS011;52327;42.622;23.316;2023-03-07T10:34:38;1.02;;;0.85;;
65636;SDS011;52327;42.622;23.316;2023-03-07T10:37:12;1.35;;;0.65;;
65636;SDS011;52327;42.622;23.316;2023-03-07T10:39:52;1.20;;;0.93;;
65636;SDS011;52327;42.622;23.316;2023-03-07T10:42:21;1.55;;;0.55;;
65636;SDS011;52327;42.622;23.316;2023-03-07T10:44:49;1.52;;;0.82;;
65636;SDS011;52327;42.622;23.316;2023-03-07T10:47:25;0.85;;;0.75;;
65636;SDS011;52327;42.622;23.316;2023-03-07T10:49:53;1.13;;;0.70;;
65636;SDS011;52327;42.622;23.316;2023-03-07T10:52:57;0.70;;;0.65;;
65636;SDS011;52327;42.622;23.316;2023-03-07T10:58:12;1.05;;;0.80;;
65636;SDS011;52327;42.622;23.316;2023-03-07T11:00:40;0.40;;;0.40;;
65636;SDS011;52327;42.622;23.316;2023-03-07T11:05:52;0.90;;;0.70;;
65636;SDS011;52327;42.622;23.316;2023-03-07T11:08:24;0.30;;;0.30;;
65636;SDS011;52327;42.622;23.316;2023-03-07T11:10:55;1.20;;;0.73;;
65636;SDS011;52327;42.622;23.316;2023-03-07T11:13:22;0.52;;;0.52;;
65636;SDS011;52327;42.622;23.316;2023-03-07T11:15:48;1.63;;;1.13;;
65636;SDS011;52327;42.622;23.316;2023-03-07T11:20:50;0.80;;;0.75;;
65636;SDS011;52327;42.622;23.316;2023-03-07T11:23:19;2.38;;;1.17;;
65636;SDS011;52327;42.622;23.316;2023-03-07T11:25:53;0.35;;;0.30;;
65636;SDS011;52327;42.622;23.316;2023-03-07T11:28:38;1.25;;;0.85;;
65636;SDS011;52327;42.622;23.316;2023-03-07T11:31:18;1.55;;;0.82;;
65636;SDS011;52327;42.622;23.316;2023-03-07T11:33:55;1.05;;;0.68;;
65636;SDS011;52327;42.622;23.316;2023-03-07T11:36:31;1.15;;;0.80;;
65636;SDS011;52327;42.622;23.316;2023-03-07T11:41:53;1.58;;;0.82;;
65636;SDS011;52327;42.622;23.316;2023-03-07T11:53:03;0.80;;;0.60;;
65636;SDS011;52327;42.622;23.316;2023-03-07T12:09:54;0.32;;;0.32;;
65636;SDS011;52327;42.622;23.316;2023-03-07T12:12:54;0.93;;;0.70;;
65636;SDS011;52327;42.622;23.316;2023-03-07T12:15:40;0.45;;;0.20;;
65636;SDS011;52327;42.622;23.316;2023-03-07T12:18:23;1.58;;;1.02;;
65636;SDS011;52327;42.622;23.316;2023-03-07T12:24:34;0.40;;;0.40;;
65636;SDS011;52327;42.622;23.316;2023-03-07T12:26:55;0.68;;;0.68;;
65636;SDS011;52327;42.622;23.316;2023-03-07T12:29:33;1.08;;;0.95;;
65636;SDS011;52327;42.622;23.316;2023-03-07T12:32:03;1.17;;;0.60;;
65636;SDS011;52327;42.622;23.316;2023-03-07T12:34:38;1.33;;;0.80;;
65636;SDS011;52327;42.622;23.316;2023-03-07T12:37:10;0.50;;;0.50;;
65636;SDS011;52327;42.622;23.316;2023-03-07T12:42:17;0.55;;;0.43;;
65636;SDS011;52327;42.622;23.316;2023-03-07T12:55:53;3.40;;;0.57;;
65636;SDS011;52327;42.622;23.316;2023-03-07T13:01:02;0.73;;;0.63;;
65636;SDS011;52327;42.622;23.316;2023-03-07T13:06:29;0.88;;;0.55;;
65636;SDS011;52327;42.622;23.316;2023-03-07T13:08:59;0.80;;;0.65;;
65636;SDS011;52327;42.622;23.316;2023-03-07T13:11:32;0.38;;;0.35;;
65636;SDS011;52327;42.622;23.316;2023-03-07T13:13:59;1.65;;;0.47;;
65636;SDS011;52327;42.622;23.316;2023-03-07T13:22:00;0.40;;;0.40;;
65636;SDS011;52327;42.622;23.316;2023-03-07T13:24:38;1.25;;;0.50;;
65636;SDS011;52327;42.622;23.316;2023-03-07T13:27:26;0.70;;;0.70;;
65636;SDS011;52327;42.622;23.316;2023-03-07T13:30:01;0.68;;;0.63;;
65636;SDS011;52327;42.622;23.316;2023-03-07T13:41:07;3.45;;;0.75;;
65636;SDS011;52327;42.622;23.316;2023-03-07T13:43:56;1.83;;;0.73;;
65636;SDS011;52327;42.622;23.316;2023-03-07T13:46:28;1.73;;;0.95;;
65636;SDS011;52327;42.622;23.316;2023-03-07T13:49:09;1.42;;;0.77;;
65636;SDS011;52327;42.622;23.316;2023-03-07T13:51:34;1.27;;;0.68;;
65636;SDS011;52327;42.622;23.316;2023-03-07T13:54:03;1.55;;;0.70;;
65636;SDS011;52327;42.622;23.316;2023-03-07T13:56:34;1.02;;;0.80;;
65636;SDS011;52327;42.622;23.316;2023-03-07T13:59:17;0.73;;;0.73;;
65636;SDS011;52327;42.622;23.316;2023-03-07T14:01:49;1.45;;;0.80;;
65636;SDS011;52327;42.622;23.316;2023-03-07T14:04:22;0.43;;;0.43;;
65636;SDS011;52327;42.622;23.316;2023-03-07T14:09:41;2.63;;;0.82;;
65636;SDS011;52327;42.622;23.316;2023-03-07T14:12:19;0.80;;;0.65;;
65636;SDS011;52327;42.622;23.316;2023-03-07T14:26:37;1.52;;;0.68;;
65636;SDS011;52327;42.622;23.316;2023-03-07T14:29:17;3.88;;;0.50;;
65636;SDS011;52327;42.622;23.316;2023-03-07T14:31:51;0.85;;;0.63;;
65636;SDS011;52327;42.622;23.316;2023-03-07T14:36:51;0.85;;;0.65;;
65636;SDS011;52327;42.622;23.316;2023-03-07T14:39:17;0.60;;;0.60;;
65636;SDS011;52327;42.622;23.316;2023-03-07T14:50:03;0.80;;;0.40;;
65636;SDS011;52327;42.622;23.316;2023-03-07T14:52:40;1.48;;;0.68;;
65636;SDS011;52327;42.622;23.316;2023-03-07T14:55:13;1.10;;;0.70;;
65636;SDS011;52327;42.622;23.316;2023-03-07T14:57:42;0.75;;;0.52;;
65636;SDS011;52327;42.622;23.316;2023-03-07T15:02:45;2.05;;;0.90;;
65636;SDS011;52327;42.622;23.316;2023-03-07T15:05:20;2.75;;;0.70;;
65636;SDS011;52327;42.622;23.316;2023-03-07T15:07:46;1.05;;;0.88;;
65636;SDS011;52327;42.622;23.316;2023-03-07T15:10:19;0.50;;;0.50;;
65636;SDS011;52327;42.622;23.316;2023-03-07T15:12:48;0.75;;;0.60;;
65636;SDS011;52327;42.622;23.316;2023-03-07T15:15:27;0.52;;;0.52;;
65636;SDS011;52327;42.622;23.316;2023-03-07T15:18:03;1.05;;;0.70;;
65636;SDS011;52327;42.622;23.316;2023-03-07T15:20:44;0.55;;;0.40;;
65636;SDS011;52327;42.622;23.316;2023-03-07T15:23:24;0.82;;;0.47;;
65636;SDS011;52327;42.622;23.316;2023-03-07T15:25:53;1.20;;;0.70;;
65636;SDS011;52327;42.622;23.316;2023-03-07T15:28:26;0.65;;;0.50;;
65636;SDS011;52327;42.622;23.316;2023-03-07T15:30:55;1.73;;;0.80;;
65636;SDS011;52327;42.622;23.316;2023-03-07T15:33:22;0.75;;;0.70;;
65636;SDS011;52327;42.622;23.316;2023-03-07T15:38:49;0.82;;;0.57;;
65636;SDS011;52327;42.622;23.316;2023-03-07T15:41:34;0.77;;;0.57;;
65636;SDS011;52327;42.622;23.316;2023-03-07T15:44:01;2.60;;;0.98;;
65636;SDS011;52327;42.622;23.316;2023-03-07T15:46:39;0.60;;;0.45;;
65636;SDS011;52327;42.622;23.316;2023-03-07T15:49:15;0.85;;;0.47;;
65636;SDS011;52327;42.622;23.316;2023-03-07T15:52:01;3.05;;;0.80;;
65636;SDS011;52327;42.622;23.316;2023-03-07T15:57:05;1.52;;;0.60;;
65636;SDS011;52327;42.622;23.316;2023-03-07T16:00:28;1.20;;;0.70;;
65636;SDS011;52327;42.622;23.316;2023-03-07T16:04:56;1.27;;;0.70;;
65636;SDS011;52327;42.622;23.316;2023-03-07T16:07:22;0.55;;;0.50;;
65636;SDS011;52327;42.622;23.316;2023-03-07T16:09:51;1.27;;;0.73;;
65636;SDS011;52327;42.622;23.316;2023-03-07T16:12:16;1.83;;;1.05;;
65636;SDS011;52327;42.622;23.316;2023-03-07T16:14:45;0.55;;;0.50;;
65636;SDS011;52327;42.622;23.316;2023-03-07T16:19:45;0.60;;;0.55;;
65636;SDS011;52327;42.622;23.316;2023-03-07T16:22:14;0.98;;;0.70;;
65636;SDS011;52327;42.622;23.316;2023-03-07T16:24:41;1.52;;;0.57;;
65636;SDS011;52327;42.622;23.316;2023-03-07T16:27:20;1.48;;;0.47;;
65636;SDS011;52327;42.622;23.316;2023-03-07T16:29:47;0.90;;;0.80;;
65636;SDS011;52327;42.622;23.316;2023-03-07T16:32:16;2.13;;;0.70;;
65636;SDS011;52327;42.622;23.316;2023-03-07T16:34:44;1.10;;;0.88;;
65636;SDS011;52327;42.622;23.316;2023-03-07T16:37:10;3.17;;;1.30;;
65636;SDS011;52327;42.622;23.316;2023-03-07T16:39:37;1.75;;;0.80;;
65636;SDS011;52327;42.622;23.316;2023-03-07T16:42:03;1.73;;;0.88;;
65636;SDS011;52327;42.622;23.316;2023-03-07T16:44:29;1.15;;;0.80;;
65636;SDS011;52327;42.622;23.316;2023-03-07T16:46:56;1.02;;;0.60;;
65636;SDS011;52327;42.622;23.316;2023-03-07T16:49:28;1.38;;;0.70;;
65636;SDS011;52327;42.622;23.316;2023-03-07T16:51:53;0.82;;;0.70;;
65636;SDS011;52327;42.622;23.316;2023-03-07T16:54:19;4.13;;;0.73;;
65636;SDS011;52327;42.622;23.316;2023-03-07T16:56:46;1.20;;;0.80;;
65636;SDS011;52327;42.622;23.316;2023-03-07T16:59:14;1.52;;;0.80;;
65636;SDS011;52327;42.622;23.316;2023-03-07T17:01:43;3.33;;;0.80;;
65636;SDS011;52327;42.622;23.316;2023-03-07T17:04:10;0.68;;;0.50;;
65636;SDS011;52327;42.622;23.316;2023-03-07T17:06:35;1.85;;;0.80;;